• Join FlightAware (Why Join?)
  • Login
  • US Flag 
07:34PM EDT


 

Airport Tracker/Info


-or-


 

Live Flight TrackerFlight Track Log ✈ N9358C ✈ 25-Jul-2013 ✈ KELA - KFTW

Flight Track Log - Related Links

Times and Time Zones

All times are in EDT time to prevent confusion due to time zone crossing. See the N9358C flight status page for this flight to view local times or setup timezone preferences in your user account.

Time Position Orientation Groundspeed Altitude Reporting Facility
EDT Latitude Longitude Course Direction KTS MPH feet Rate Location/Type
05:17PM 29.7575 -96.3161 341° North 92 106 3,300  Level Houston Center
05:18PM 29.7903 -96.3292 341° North 98 113 3,600 180 Climbing Houston Center
05:19PM 29.8069 -96.3372 337° Northwest 93 107 3,800 180 Climbing Houston Center
05:20PM 29.8369 -96.3625 324° Northwest 99 114 4,000 120 Climbing Houston Center
05:21PM 29.8567 -96.3744 332° Northwest 100 115 4,100 240 Climbing Houston Center
05:22PM 29.8800 -96.3881 333° Northwest 95 109 4,500 240 Climbing Houston Center
05:23PM 29.9064 -96.4022 335° Northwest 101 116 4,600  Climbing Houston Center
05:24PM 29.9331 -96.4114 343° North 101 116 4,600 -60 Level Houston Center
05:25PM 29.9644 -96.4275 336° Northwest 103 119 4,500  Descending Houston Center
05:26PM 29.9886 -96.4344 346° North 109 125 4,600  Climbing Houston Center
05:27PM 30.0236 -96.4464 344° North 110 127 4,500 -60 Descending Houston Center
05:28PM 30.0517 -96.4564 343° North 107 123 4,500  Level Houston Center
05:29PM 30.0758 -96.4747 327° Northwest 104 120 4,600  Climbing Houston Center
05:30PM 30.1053 -96.4853 343° North 109 125 4,500  Descending Houston Center
05:31PM 30.1367 -96.4986 340° North 106 122 4,600  Climbing Houston Center
05:32PM 30.1669 -96.5114 340° North 113 130 4,500  Descending Houston Center
05:33PM 30.1944 -96.5219 342° North 106 122 4,600  Climbing Houston Center
05:34PM 30.2222 -96.5328 341° North 105 121 4,500 -60 Descending Houston Center
05:35PM 30.2556 -96.5439 344° North 106 122 4,500  Level Houston Center
05:36PM 30.2803 -96.5628 327° Northwest 104 120 4,500  Level Houston Center
05:37PM 30.3050 -96.5767 334° Northwest 100 115 4,600  Climbing Houston Center
05:38PM 30.3300 -96.5889 337° Northwest 98 113 4,600  Level Houston Center
05:40PM 30.3575 -96.6017 338° Northwest 102 117 4,600  Level Houston Center
05:41PM 30.3856 -96.6150 338° Northwest 105 121 4,600  Level Houston Center
05:42PM 30.4136 -96.6286 337° Northwest 108 124 4,600 -60 Level Houston Center
05:43PM 30.4414 -96.6439 335° Northwest 100 115 4,500  Descending Houston Center
05:44PM 30.4689 -96.6511 347° North 95 109 4,600  Climbing Houston Center
05:45PM 30.4972 -96.6656 336° Northwest 108 124 4,600  Level Houston Center
05:46PM 30.5281 -96.6758 344° North 112 129 4,600  Level Houston Center
05:47PM 30.5592 -96.6836 348° North 113 130 4,600  Level Houston Center
05:48PM 30.5908 -96.6928 346° North 115 132 4,600  Level Houston Center
05:49PM 30.6181 -96.7047 339° North 107 123 4,600  Level Houston Center
05:50PM 30.6503 -96.7136 347° North 111 128 4,600  Level Houston Center
05:51PM 30.6847 -96.7169 355° North 108 124 4,600  Level Houston Center
05:52PM 30.7100 -96.7242 346° North 104 120 4,600 -60 Level Houston Center
05:53PM 30.7394 -96.7281 354° North 107 123 4,500 -60 Descending Houston Center
05:54PM 30.7717 -96.7311 355° North 104 120 4,500  Level Houston Center
05:55PM 30.7994 -96.7347 354° North 102 117 4,600  Climbing Houston Center
05:56PM 30.8267 -96.7431 345° North 106 122 4,600  Level Houston Center
05:57PM 30.8586 -96.7494 350° North 108 124 4,600  Level Houston Center
05:58PM 30.8864 -96.7536 353° North 109 125 4,600 -60 Level Houston Center
05:59PM 30.9164 -96.7625 346° North 110 127 4,500  Descending Houston Center
06:00PM 30.9542 -96.7819 336° Northwest 116 133 4,600  Climbing Houston Center
06:01PM 30.9822 -96.7961 337° Northwest 114 131 4,600 -60 Level Houston Center
06:02PM 31.0103 -96.8081 340° North 109 125 4,500  Descending Houston Center
06:03PM 31.0450 -96.8161 349° North 108 124 4,600  Climbing Houston Center
06:04PM 31.0747 -96.8239 347° North 108 124 4,600  Level Houston Center
06:05PM 31.0978 -96.8347 338° Northwest 108 124 4,600  Level Houston Center
06:06PM 31.1306 -96.8592 327° Northwest 113 130 4,600  Level Houston Center
06:07PM 31.1564 -96.8769 330° Northwest 111 128 4,600  Level Houston Center
06:09PM 31.1844 -96.8914 336° Northwest 110 127 4,600  Level Houston Center
06:10PM 31.2153 -96.9119 330° Northwest 109 125 4,600  Level Houston Center
06:11PM 31.2414 -96.9297 330° Northwest 108 124 4,600  Level Houston Center
06:12PM 31.2706 -96.9408 342° North 109 125 4,600  Level Houston Center
06:13PM 31.3003 -96.9514 343° North 110 127 4,600  Level Houston Center
06:14PM 31.3306 -96.9622 343° North 111 128 4,600  Level Houston Center
06:15PM 31.3592 -96.9714 345° North 109 125 4,600  Level Houston Center
06:16PM 31.3939 -96.9811 347° North 109 125 4,600  Level Houston Center
06:17PM 31.4219 -96.9911 343° North 107 123 4,600  Level Houston Center
06:18PM 31.4503 -97.0050 337° Northwest 107 123 4,600  Level Houston Center
06:19PM 31.4800 -97.0211 335° Northwest 111 128 4,600 -60 Level Houston Center
06:21PM 31.5306 -97.0312 350° North  Level FlightAware Approximate
06:28PM 31.7455 -97.0744 350° North  Level FlightAware Approximate
06:29PM 31.7762 -97.0806 350° North  Level FlightAware Approximate
06:30PM 31.8069 -97.0868 350° North  Level FlightAware Approximate
06:31PM 31.8376 -97.0930 350° North  Level FlightAware Approximate
06:32PM 31.8683 -97.0992 350° North  Level FlightAware Approximate
06:33PM 31.8990 -97.1053 350° North  Level FlightAware Approximate
06:34PM 31.9296 -97.1115 350° North  Level FlightAware Approximate
06:35PM 31.9603 -97.1178 350° North  Level FlightAware Approximate
06:36PM 31.9910 -97.1240 350° North  Level FlightAware Approximate
06:37PM 32.0217 -97.1302 350° North  Level FlightAware Approximate
06:38PM 32.0524 -97.1364 350° North  Level FlightAware Approximate
06:39PM 32.0831 -97.1426 350° North  Level FlightAware Approximate
06:40PM 32.1138 -97.1488 350° North  Level FlightAware Approximate
06:41PM 32.1445 -97.1551 350° North  Level FlightAware Approximate
06:42PM 32.1752 -97.1613 350° North  Level FlightAware Approximate
06:42PM 32.1667 -97.2500 346° North 114 131 4,400  Level Dallas / Fort Worth TRACON
06:43PM 32.2058 -97.1676 350° North  Level FlightAware Approximate
06:43PM 32.2167 -97.2500 360° North 109 125 4,400  Level Dallas / Fort Worth TRACON
06:44PM 32.2365 -97.1738 350° North  Level FlightAware Approximate
06:45PM 32.2672 -97.1801 350° North  Level FlightAware Approximate
06:45PM 32.2500 -97.2500 360° North 106 122 4,500  Level Dallas / Fort Worth TRACON
06:46PM 32.2979 -97.1877 346° North  Level FlightAware Approximate
06:46PM 32.2667 -97.2500 360° North 108 124 4,500  Level Dallas / Fort Worth TRACON
06:47PM 32.3280 -97.1967 346° North  Level FlightAware Approximate
06:47PM 32.3000 -97.2500 360° North 105 121 4,500  Level Dallas / Fort Worth TRACON
06:47PM 32.3333 -97.2667 337° Northwest 109 125 4,500 -60 Level Dallas / Fort Worth TRACON
06:48PM 32.3582 -97.2057 346° North  Level FlightAware Approximate
06:48PM 32.3667 -97.2667 360° North 111 128 4,400  Level Dallas / Fort Worth TRACON
06:50PM 32.3833 -97.2667 360° North 102 117 4,500  Climbing Dallas / Fort Worth TRACON
06:50PM 32.4167 -97.2833 337° Northwest 110 127 4,500  Level Dallas / Fort Worth TRACON
06:51PM 32.4500 -97.2833 360° North 109 125 4,500  Level Dallas / Fort Worth TRACON
06:52PM 32.4833 -97.2833 360° North 106 122 4,500  Level Dallas / Fort Worth TRACON
06:54PM 32.5155 -97.2833 North  Level FlightAware Approximate
06:55PM 32.5333 -97.3000 North 111 128 4,500  Level Dallas / Fort Worth TRACON
06:55PM 32.5667 -97.3000 360° North 111 128 4,500 -120 Level Dallas / Fort Worth TRACON
06:56PM 32.6000 -97.3167 337° Northwest 111 128 4,300 -420 Descending Dallas / Fort Worth TRACON
06:57PM 32.6167 -97.3333 320° Northwest 113 130 3,700 -540 Descending Dallas / Fort Worth TRACON
06:58PM 32.6500 -97.3500 337° Northwest 110 127 3,300 -360 Descending Dallas / Fort Worth TRACON
06:59PM 32.6833 -97.3500 360° North 104 120 3,000 -420 Descending Dallas / Fort Worth TRACON
07:00PM 32.7167 -97.3500 360° North 107 123 2,500 -540 Descending Dallas / Fort Worth TRACON